sensor_id;sensor_type;location;lat;lon;timestamp;temperature;humidity
68804;SHT31;55787;52.678;13.314;2023-07-28T00:01:02;16.40;99.99
68804;SHT31;55787;52.678;13.314;2023-07-28T00:03:28;16.40;99.99
68804;SHT31;55787;52.678;13.314;2023-07-28T00:05:55;16.43;99.99
68804;SHT31;55787;52.678;13.314;2023-07-28T00:08:22;16.45;99.99
68804;SHT31;55787;52.678;13.314;2023-07-28T00:10:49;16.46;99.99
68804;SHT31;55787;52.678;13.314;2023-07-28T00:13:16;16.48;99.99
68804;SHT31;55787;52.678;13.314;2023-07-28T00:15:42;16.49;99.99
68804;SHT31;55787;52.678;13.314;2023-07-28T00:18:09;16.52;99.99
68804;SHT31;55787;52.678;13.314;2023-07-28T00:20:36;16.55;99.99
68804;SHT31;55787;52.678;13.314;2023-07-28T00:23:03;16.53;99.99
68804;SHT31;55787;52.678;13.314;2023-07-28T00:25:30;16.56;99.99
68804;SHT31;55787;52.678;13.314;2023-07-28T00:27:57;16.55;99.99
68804;SHT31;55787;52.678;13.314;2023-07-28T00:30:24;16.57;99.99
68804;SHT31;55787;52.678;13.314;2023-07-28T00:32:51;16.56;99.99
68804;SHT31;55787;52.678;13.314;2023-07-28T00:35:18;16.60;99.99
68804;SHT31;55787;52.678;13.314;2023-07-28T00:37:45;16.60;99.99
68804;SHT31;55787;52.678;13.314;2023-07-28T00:40:15;16.59;99.99
68804;SHT31;55787;52.678;13.314;2023-07-28T00:42:41;16.57;99.99
68804;SHT31;55787;52.678;13.314;2023-07-28T00:45:08;16.62;99.99
68804;SHT31;55787;52.678;13.314;2023-07-28T00:47:35;16.67;99.99
68804;SHT31;55787;52.678;13.314;2023-07-28T00:50:03;16.70;99.99
68804;SHT31;55787;52.678;13.314;2023-07-28T00:52:30;16.71;99.99
68804;SHT31;55787;52.678;13.314;2023-07-28T00:54:57;16.69;99.99
68804;SHT31;55787;52.678;13.314;2023-07-28T00:57:50;16.73;99.99
68804;SHT31;55787;52.678;13.314;2023-07-28T01:00:17;16.74;99.99
68804;SHT31;55787;52.678;13.314;2023-07-28T01:02:43;16.74;99.99
68804;SHT31;55787;52.678;13.314;2023-07-28T01:05:11;16.71;99.99
68804;SHT31;55787;52.678;13.314;2023-07-28T01:07:44;16.77;99.99
68804;SHT31;55787;52.678;13.314;2023-07-28T01:10:30;16.81;99.99
68804;SHT31;55787;52.678;13.314;2023-07-28T01:12:58;16.81;99.99
68804;SHT31;55787;52.678;13.314;2023-07-28T01:15:25;16.83;99.99
68804;SHT31;55787;52.678;13.314;2023-07-28T01:17:52;16.81;99.99
68804;SHT31;55787;52.678;13.314;2023-07-28T01:20:20;16.81;99.99
68804;SHT31;55787;52.678;13.314;2023-07-28T01:28:01;16.83;99.99
68804;SHT31;55787;52.678;13.314;2023-07-28T01:30:28;16.83;99.99
68804;SHT31;55787;52.678;13.314;2023-07-28T01:33:43;16.84;99.99
68804;SHT31;55787;52.678;13.314;2023-07-28T01:36:10;16.85;99.99
68804;SHT31;55787;52.678;13.314;2023-07-28T01:38:36;16.85;99.99
68804;SHT31;55787;52.678;13.314;2023-07-28T01:41:03;16.85;99.99
68804;SHT31;55787;52.678;13.314;2023-07-28T01:43:30;16.88;99.99
68804;SHT31;55787;52.678;13.314;2023-07-28T01:45:56;16.88;99.99
68804;SHT31;55787;52.678;13.314;2023-07-28T01:48:23;16.91;99.99
68804;SHT31;55787;52.678;13.314;2023-07-28T01:50:50;16.91;99.99
68804;SHT31;55787;52.678;13.314;2023-07-28T01:53:16;16.91;99.99
68804;SHT31;55787;52.678;13.314;2023-07-28T01:55:43;16.94;99.99
68804;SHT31;55787;52.678;13.314;2023-07-28T01:58:10;16.97;99.99
68804;SHT31;55787;52.678;13.314;2023-07-28T02:00:36;16.97;99.99
68804;SHT31;55787;52.678;13.314;2023-07-28T02:03:03;17.00;99.99
68804;SHT31;55787;52.678;13.314;2023-07-28T02:05:31;17.01;99.99
68804;SHT31;55787;52.678;13.314;2023-07-28T02:07:58;17.00;99.99
68804;SHT31;55787;52.678;13.314;2023-07-28T02:10:26;16.99;99.99
68804;SHT31;55787;52.678;13.314;2023-07-28T02:12:53;16.99;99.99
68804;SHT31;55787;52.678;13.314;2023-07-28T02:15:19;17.03;99.99
68804;SHT31;55787;52.678;13.314;2023-07-28T02:17:46;17.03;99.99
68804;SHT31;55787;52.678;13.314;2023-07-28T02:20:13;17.07;99.99
68804;SHT31;55787;52.678;13.314;2023-07-28T02:22:44;17.06;99.99
68804;SHT31;55787;52.678;13.314;2023-07-28T02:25:14;17.08;99.99
68804;SHT31;55787;52.678;13.314;2023-07-28T02:27:41;17.07;99.99
68804;SHT31;55787;52.678;13.314;2023-07-28T02:30:08;17.08;99.99
68804;SHT31;55787;52.678;13.314;2023-07-28T02:32:35;17.10;99.99
68804;SHT31;55787;52.678;13.314;2023-07-28T02:35:03;17.07;99.99
68804;SHT31;55787;52.678;13.314;2023-07-28T02:37:29;17.11;99.99
68804;SHT31;55787;52.678;13.314;2023-07-28T02:39:56;17.10;99.99
68804;SHT31;55787;52.678;13.314;2023-07-28T02:42:23;17.10;99.99
68804;SHT31;55787;52.678;13.314;2023-07-28T02:44:51;17.07;99.99
68804;SHT31;55787;52.678;13.314;2023-07-28T02:47:18;17.10;99.99
68804;SHT31;55787;52.678;13.314;2023-07-28T02:49:45;17.11;99.99
68804;SHT31;55787;52.678;13.314;2023-07-28T02:52:13;17.07;99.99
68804;SHT31;55787;52.678;13.314;2023-07-28T02:54:39;17.07;99.99
68804;SHT31;55787;52.678;13.314;2023-07-28T02:57:06;17.11;99.99
68804;SHT31;55787;52.678;13.314;2023-07-28T02:59:33;17.12;99.99
68804;SHT31;55787;52.678;13.314;2023-07-28T03:02:00;17.10;99.99
68804;SHT31;55787;52.678;13.314;2023-07-28T03:04:27;17.11;99.99
68804;SHT31;55787;52.678;13.314;2023-07-28T03:06:54;17.11;99.99
68804;SHT31;55787;52.678;13.314;2023-07-28T03:09:20;17.08;99.99
68804;SHT31;55787;52.678;13.314;2023-07-28T03:11:47;17.11;99.99
68804;SHT31;55787;52.678;13.314;2023-07-28T03:14:14;17.11;99.99
68804;SHT31;55787;52.678;13.314;2023-07-28T03:16:41;17.08;99.99
68804;SHT31;55787;52.678;13.314;2023-07-28T03:19:08;17.10;99.99
68804;SHT31;55787;52.678;13.314;2023-07-28T03:21:35;17.10;99.99
68804;SHT31;55787;52.678;13.314;2023-07-28T03:24:05;17.11;99.99
68804;SHT31;55787;52.678;13.314;2023-07-28T03:26:32;17.12;99.99
68804;SHT31;55787;52.678;13.314;2023-07-28T03:28:59;17.14;99.99
68804;SHT31;55787;52.678;13.314;2023-07-28T03:31:26;17.14;99.99
68804;SHT31;55787;52.678;13.314;2023-07-28T03:33:53;17.12;99.99
68804;SHT31;55787;52.678;13.314;2023-07-28T03:36:19;17.12;99.99
68804;SHT31;55787;52.678;13.314;2023-07-28T03:38:46;17.20;99.99
68804;SHT31;55787;52.678;13.314;2023-07-28T03:41:13;17.15;99.99
68804;SHT31;55787;52.678;13.314;2023-07-28T03:43:41;17.17;99.99
68804;SHT31;55787;52.678;13.314;2023-07-28T03:46:07;17.18;99.99
68804;SHT31;55787;52.678;13.314;2023-07-28T03:48:34;17.20;99.99
68804;SHT31;55787;52.678;13.314;2023-07-28T03:51:01;17.21;99.99
68804;SHT31;55787;52.678;13.314;2023-07-28T03:53:28;17.20;99.99
68804;SHT31;55787;52.678;13.314;2023-07-28T03:55:55;17.21;99.99
68804;SHT31;55787;52.678;13.314;2023-07-28T03:58:25;17.22;99.99
68804;SHT31;55787;52.678;13.314;2023-07-28T04:00:52;17.22;99.99
68804;SHT31;55787;52.678;13.314;2023-07-28T04:03:22;17.25;99.99
68804;SHT31;55787;52.678;13.314;2023-07-28T04:05:49;17.24;99.99
68804;SHT31;55787;52.678;13.314;2023-07-28T04:08:16;17.27;99.99
68804;SHT31;55787;52.678;13.314;2023-07-28T04:10:43;17.25;99.99
68804;SHT31;55787;52.678;13.314;2023-07-28T04:13:10;17.28;99.99
68804;SHT31;55787;52.678;13.314;2023-07-28T04:15:36;17.31;99.99
68804;SHT31;55787;52.678;13.314;2023-07-28T04:18:03;17.30;99.99
68804;SHT31;55787;52.678;13.314;2023-07-28T04:20:30;17.28;99.99
68804;SHT31;55787;52.678;13.314;2023-07-28T04:22:57;17.28;99.99
68804;SHT31;55787;52.678;13.314;2023-07-28T04:25:23;17.31;99.90
68804;SHT31;55787;52.678;13.314;2023-07-28T04:27:50;17.32;99.99
68804;SHT31;55787;52.678;13.314;2023-07-28T04:30:17;17.32;99.95
68804;SHT31;55787;52.678;13.314;2023-07-28T04:32:43;17.34;99.99
68804;SHT31;55787;52.678;13.314;2023-07-28T04:35:10;17.30;99.85
68804;SHT31;55787;52.678;13.314;2023-07-28T04:37:37;17.36;99.99
68804;SHT31;55787;52.678;13.314;2023-07-28T04:40:04;17.36;99.99
68804;SHT31;55787;52.678;13.314;2023-07-28T04:42:31;17.41;99.97
68804;SHT31;55787;52.678;13.314;2023-07-28T04:44:57;17.39;99.94
68804;SHT31;55787;52.678;13.314;2023-07-28T04:47:24;17.41;99.84
68804;SHT31;55787;52.678;13.314;2023-07-28T04:49:50;17.43;99.84
68804;SHT31;55787;52.678;13.314;2023-07-28T04:52:17;17.39;99.88
68804;SHT31;55787;52.678;13.314;2023-07-28T04:54:44;17.42;99.98
68804;SHT31;55787;52.678;13.314;2023-07-28T04:57:10;17.38;99.91
68804;SHT31;55787;52.678;13.314;2023-07-28T04:59:41;17.39;99.89
68804;SHT31;55787;52.678;13.314;2023-07-28T05:02:08;17.42;99.72
68804;SHT31;55787;52.678;13.314;2023-07-28T05:04:35;17.48;99.65
68804;SHT31;55787;52.678;13.314;2023-07-28T05:07:04;17.46;99.47
68804;SHT31;55787;52.678;13.314;2023-07-28T05:09:31;17.48;99.65
68804;SHT31;55787;52.678;13.314;2023-07-28T05:11:57;17.48;99.68
68804;SHT31;55787;52.678;13.314;2023-07-28T05:14:24;17.56;99.85
68804;SHT31;55787;52.678;13.314;2023-07-28T05:16:50;17.58;99.37
68804;SHT31;55787;52.678;13.314;2023-07-28T05:19:17;17.59;99.46
68804;SHT31;55787;52.678;13.314;2023-07-28T05:21:44;17.68;99.40
68804;SHT31;55787;52.678;13.314;2023-07-28T05:24:10;17.80;98.99
68804;SHT31;55787;52.678;13.314;2023-07-28T05:26:37;17.85;98.77
68804;SHT31;55787;52.678;13.314;2023-07-28T05:29:04;18.00;98.09
68804;SHT31;55787;52.678;13.314;2023-07-28T05:31:30;17.96;98.44
68804;SHT31;55787;52.678;13.314;2023-07-28T05:33:58;17.89;98.54
68804;SHT31;55787;52.678;13.314;2023-07-28T05:36:24;17.82;98.72
68804;SHT31;55787;52.678;13.314;2023-07-28T05:38:51;17.80;98.68
68804;SHT31;55787;52.678;13.314;2023-07-28T05:41:20;17.90;98.67
68804;SHT31;55787;52.678;13.314;2023-07-28T05:43:46;17.99;98.71
68804;SHT31;55787;52.678;13.314;2023-07-28T05:46:17;18.01;98.36
68804;SHT31;55787;52.678;13.314;2023-07-28T05:48:44;18.13;97.86
68804;SHT31;55787;52.678;13.314;2023-07-28T05:51:10;17.97;98.16
68804;SHT31;55787;52.678;13.314;2023-07-28T05:53:37;17.80;98.57
68804;SHT31;55787;52.678;13.314;2023-07-28T05:56:04;17.76;98.84
68804;SHT31;55787;52.678;13.314;2023-07-28T05:58:31;17.73;99.13
68804;SHT31;55787;52.678;13.314;2023-07-28T06:00:57;17.71;99.26
68804;SHT31;55787;52.678;13.314;2023-07-28T06:03:24;17.71;99.03
68804;SHT31;55787;52.678;13.314;2023-07-28T06:05:52;17.72;99.31
68804;SHT31;55787;52.678;13.314;2023-07-28T06:08:18;17.69;99.18
68804;SHT31;55787;52.678;13.314;2023-07-28T06:10:45;17.69;99.07
68804;SHT31;55787;52.678;13.314;2023-07-28T06:13:12;17.56;99.55
68804;SHT31;55787;52.678;13.314;2023-07-28T06:15:39;17.62;99.47
68804;SHT31;55787;52.678;13.314;2023-07-28T06:18:06;17.68;99.34
68804;SHT31;55787;52.678;13.314;2023-07-28T06:20:34;17.62;99.33
68804;SHT31;55787;52.678;13.314;2023-07-28T06:23:01;17.63;99.38
68804;SHT31;55787;52.678;13.314;2023-07-28T06:25:27;17.63;99.18
68804;SHT31;55787;52.678;13.314;2023-07-28T06:27:54;17.66;99.53
68804;SHT31;55787;52.678;13.314;2023-07-28T06:30:21;17.75;99.28
68804;SHT31;55787;52.678;13.314;2023-07-28T06:32:48;17.79;99.41
68804;SHT31;55787;52.678;13.314;2023-07-28T06:35:15;17.82;99.16
68804;SHT31;55787;52.678;13.314;2023-07-28T06:37:41;17.86;99.17
68804;SHT31;55787;52.678;13.314;2023-07-28T06:40:08;17.94;98.94
68804;SHT31;55787;52.678;13.314;2023-07-28T06:42:36;18.06;98.64
68804;SHT31;55787;52.678;13.314;2023-07-28T06:45:03;18.10;98.58
68804;SHT31;55787;52.678;13.314;2023-07-28T06:47:30;18.20;98.08
68804;SHT31;55787;52.678;13.314;2023-07-28T06:49:57;18.23;98.10
68804;SHT31;55787;52.678;13.314;2023-07-28T06:52:24;18.23;97.96
68804;SHT31;55787;52.678;13.314;2023-07-28T06:54:50;18.23;97.93
68804;SHT31;55787;52.678;13.314;2023-07-28T06:57:17;18.18;97.66
68804;SHT31;55787;52.678;13.314;2023-07-28T06:59:44;18.09;98.41
68804;SHT31;55787;52.678;13.314;2023-07-28T07:02:11;18.10;98.22
68804;SHT31;55787;52.678;13.314;2023-07-28T07:04:38;18.07;98.47
68804;SHT31;55787;52.678;13.314;2023-07-28T07:07:05;18.18;98.31
68804;SHT31;55787;52.678;13.314;2023-07-28T07:09:31;18.21;97.84
68804;SHT31;55787;52.678;13.314;2023-07-28T07:11:58;18.26;97.95
68804;SHT31;55787;52.678;13.314;2023-07-28T07:14:25;18.48;98.19
68804;SHT31;55787;52.678;13.314;2023-07-28T07:16:51;18.54;97.33
68804;SHT31;55787;52.678;13.314;2023-07-28T07:19:18;18.45;97.76
68804;SHT31;55787;52.678;13.314;2023-07-28T07:21:45;18.50;97.73
68804;SHT31;55787;52.678;13.314;2023-07-28T07:24:13;18.48;97.64
68804;SHT31;55787;52.678;13.314;2023-07-28T07:26:40;18.31;97.70
68804;SHT31;55787;52.678;13.314;2023-07-28T07:29:08;18.41;98.10
68804;SHT31;55787;52.678;13.314;2023-07-28T07:31:35;18.52;97.59
68804;SHT31;55787;52.678;13.314;2023-07-28T07:34:03;18.47;97.65
68804;SHT31;55787;52.678;13.314;2023-07-28T07:36:31;18.52;97.81
68804;SHT31;55787;52.678;13.314;2023-07-28T07:38:58;18.84;97.30
68804;SHT31;55787;52.678;13.314;2023-07-28T07:41:24;19.09;96.26
68804;SHT31;55787;52.678;13.314;2023-07-28T07:43:55;19.61;95.06
68804;SHT31;55787;52.678;13.314;2023-07-28T07:46:22;20.11;92.71
68804;SHT31;55787;52.678;13.314;2023-07-28T07:48:49;20.38;91.56
68804;SHT31;55787;52.678;13.314;2023-07-28T07:51:16;19.82;92.76
68804;SHT31;55787;52.678;13.314;2023-07-28T07:53:43;19.78;93.75
68804;SHT31;55787;52.678;13.314;2023-07-28T07:56:10;19.84;92.73
68804;SHT31;55787;52.678;13.314;2023-07-28T07:58:37;19.40;93.62
68804;SHT31;55787;52.678;13.314;2023-07-28T08:01:03;19.69;93.40
68804;SHT31;55787;52.678;13.314;2023-07-28T08:03:31;19.54;94.34
68804;SHT31;55787;52.678;13.314;2023-07-28T08:06:02;19.59;93.87
68804;SHT31;55787;52.678;13.314;2023-07-28T08:08:54;19.41;94.28
68804;SHT31;55787;52.678;13.314;2023-07-28T08:11:23;19.64;93.95
68804;SHT31;55787;52.678;13.314;2023-07-28T08:13:49;19.67;93.95
68804;SHT31;55787;52.678;13.314;2023-07-28T08:16:16;19.70;93.79
68804;SHT31;55787;52.678;13.314;2023-07-28T08:18:43;19.70;93.63
68804;SHT31;55787;52.678;13.314;2023-07-28T08:21:09;19.84;93.61
68804;SHT31;55787;52.678;13.314;2023-07-28T08:23:36;19.70;93.22
68804;SHT31;55787;52.678;13.314;2023-07-28T08:26:03;19.80;93.01
68804;SHT31;55787;52.678;13.314;2023-07-28T08:28:30;19.69;93.39
68804;SHT31;55787;52.678;13.314;2023-07-28T08:30:59;19.57;94.09
68804;SHT31;55787;52.678;13.314;2023-07-28T08:33:26;19.57;94.18
68804;SHT31;55787;52.678;13.314;2023-07-28T08:35:52;19.54;94.04
68804;SHT31;55787;52.678;13.314;2023-07-28T08:38:19;19.51;94.01
68804;SHT31;55787;52.678;13.314;2023-07-28T08:40:46;19.57;94.37
68804;SHT31;55787;52.678;13.314;2023-07-28T08:43:13;19.32;94.05
68804;SHT31;55787;52.678;13.314;2023-07-28T08:45:39;19.34;94.66
68804;SHT31;55787;52.678;13.314;2023-07-28T08:48:06;19.32;94.88
68804;SHT31;55787;52.678;13.314;2023-07-28T08:50:33;19.29;94.43
68804;SHT31;55787;52.678;13.314;2023-07-28T08:53:00;19.23;94.54
68804;SHT31;55787;52.678;13.314;2023-07-28T08:55:26;19.19;94.63
68804;SHT31;55787;52.678;13.314;2023-07-28T08:57:53;19.24;94.56
68804;SHT31;55787;52.678;13.314;2023-07-28T09:00:20;19.53;93.57
68804;SHT31;55787;52.678;13.314;2023-07-28T09:02:49;19.61;92.55
68804;SHT31;55787;52.678;13.314;2023-07-28T09:05:18;19.47;92.98
68804;SHT31;55787;52.678;13.314;2023-07-28T09:07:46;19.45;93.77
68804;SHT31;55787;52.678;13.314;2023-07-28T09:10:14;19.47;94.26
68804;SHT31;55787;52.678;13.314;2023-07-28T09:12:48;19.59;94.45
68804;SHT31;55787;52.678;13.314;2023-07-28T09:15:15;19.59;92.88
68804;SHT31;55787;52.678;13.314;2023-07-28T09:17:45;19.59;93.73
68804;SHT31;55787;52.678;13.314;2023-07-28T09:20:14;20.28;92.65
68804;SHT31;55787;52.678;13.314;2023-07-28T09:22:43;20.68;91.11
68804;SHT31;55787;52.678;13.314;2023-07-28T09:25:15;20.77;90.27
68804;SHT31;55787;52.678;13.314;2023-07-28T09:27:52;20.56;91.91
68804;SHT31;55787;52.678;13.314;2023-07-28T09:30:19;20.56;91.75
68804;SHT31;55787;52.678;13.314;2023-07-28T09:32:48;20.32;92.45
68804;SHT31;55787;52.678;13.314;2023-07-28T09:35:15;20.26;91.06
68804;SHT31;55787;52.678;13.314;2023-07-28T09:37:47;20.56;90.59
68804;SHT31;55787;52.678;13.314;2023-07-28T09:40:21;22.37;84.50
68804;SHT31;55787;52.678;13.314;2023-07-28T09:42:49;23.25;83.11
68804;SHT31;55787;52.678;13.314;2023-07-28T09:45:21;24.86;77.53
68804;SHT31;55787;52.678;13.314;2023-07-28T09:48:06;24.82;75.99
68804;SHT31;55787;52.678;13.314;2023-07-28T09:50:38;26.43;74.89
68804;SHT31;55787;52.678;13.314;2023-07-28T09:53:08;26.25;72.29
68804;SHT31;55787;52.678;13.314;2023-07-28T09:55:38;24.27;75.44
68804;SHT31;55787;52.678;13.314;2023-07-28T09:58:09;26.14;72.68
68804;SHT31;55787;52.678;13.314;2023-07-28T10:00:36;25.78;71.16
68804;SHT31;55787;52.678;13.314;2023-07-28T10:03:03;25.02;74.78
68804;SHT31;55787;52.678;13.314;2023-07-28T10:05:31;24.37;75.45
68804;SHT31;55787;52.678;13.314;2023-07-28T10:07:59;23.20;81.73
68804;SHT31;55787;52.678;13.314;2023-07-28T10:10:27;23.52;81.06
68804;SHT31;55787;52.678;13.314;2023-07-28T10:12:57;23.05;81.19
68804;SHT31;55787;52.678;13.314;2023-07-28T10:15:29;22.35;83.28
68804;SHT31;55787;52.678;13.314;2023-07-28T10:17:57;22.08;84.34
68804;SHT31;55787;52.678;13.314;2023-07-28T10:20:35;21.75;84.67
68804;SHT31;55787;52.678;13.314;2023-07-28T10:23:11;21.72;86.21
68804;SHT31;55787;52.678;13.314;2023-07-28T10:25:39;22.83;85.17
68804;SHT31;55787;52.678;13.314;2023-07-28T10:28:25;23.28;82.78
68804;SHT31;55787;52.678;13.314;2023-07-28T10:30:54;22.99;83.27
68804;SHT31;55787;52.678;13.314;2023-07-28T10:33:35;22.53;83.37
68804;SHT31;55787;52.678;13.314;2023-07-28T10:36:21;22.00;83.44
68804;SHT31;55787;52.678;13.314;2023-07-28T10:41:37;20.84;86.53
68804;SHT31;55787;52.678;13.314;2023-07-28T10:44:04;21.12;87.83
68804;SHT31;55787;52.678;13.314;2023-07-28T10:46:34;21.20;87.59
68804;SHT31;55787;52.678;13.314;2023-07-28T10:49:05;21.48;87.13
68804;SHT31;55787;52.678;13.314;2023-07-28T10:51:31;22.02;85.30
68804;SHT31;55787;52.678;13.314;2023-07-28T10:54:00;22.44;84.63
68804;SHT31;55787;52.678;13.314;2023-07-28T10:56:29;22.14;85.56
68804;SHT31;55787;52.678;13.314;2023-07-28T10:59:00;22.36;84.84
68804;SHT31;55787;52.678;13.314;2023-07-28T11:01:34;22.75;84.45
68804;SHT31;55787;52.678;13.314;2023-07-28T11:06:43;21.99;84.58
68804;SHT31;55787;52.678;13.314;2023-07-28T11:09:12;21.10;86.84
68804;SHT31;55787;52.678;13.314;2023-07-28T11:11:39;21.61;86.13
68804;SHT31;55787;52.678;13.314;2023-07-28T11:14:09;21.69;85.52
68804;SHT31;55787;52.678;13.314;2023-07-28T11:16:40;21.82;86.07
68804;SHT31;55787;52.678;13.314;2023-07-28T11:19:12;21.44;86.10
68804;SHT31;55787;52.678;13.314;2023-07-28T11:21:42;21.74;87.52
68804;SHT31;55787;52.678;13.314;2023-07-28T11:24:09;22.24;85.06
68804;SHT31;55787;52.678;13.314;2023-07-28T11:26:37;22.08;85.64
68804;SHT31;55787;52.678;13.314;2023-07-28T11:29:05;21.81;86.02
68804;SHT31;55787;52.678;13.314;2023-07-28T11:31:32;22.33;86.44
68804;SHT31;55787;52.678;13.314;2023-07-28T11:34:00;21.88;86.12
68804;SHT31;55787;52.678;13.314;2023-07-28T11:36:28;22.19;83.77
68804;SHT31;55787;52.678;13.314;2023-07-28T11:38:57;22.00;85.23
68804;SHT31;55787;52.678;13.314;2023-07-28T11:41:25;21.95;85.45
68804;SHT31;55787;52.678;13.314;2023-07-28T11:43:52;21.81;86.18
68804;SHT31;55787;52.678;13.314;2023-07-28T11:49:10;21.45;87.92
68804;SHT31;55787;52.678;13.314;2023-07-28T11:51:47;21.00;88.19
68804;SHT31;55787;52.678;13.314;2023-07-28T11:54:16;20.76;89.48
68804;SHT31;55787;52.678;13.314;2023-07-28T11:56:44;20.79;90.02
68804;SHT31;55787;52.678;13.314;2023-07-28T11:59:11;20.97;90.00
68804;SHT31;55787;52.678;13.314;2023-07-28T12:01:55;20.94;89.85
68804;SHT31;55787;52.678;13.314;2023-07-28T12:04:29;21.04;88.44
68804;SHT31;55787;52.678;13.314;2023-07-28T12:07:11;21.10;88.71
68804;SHT31;55787;52.678;13.314;2023-07-28T12:09:48;21.86;88.74
68804;SHT31;55787;52.678;13.314;2023-07-28T12:12:29;22.24;88.25
68804;SHT31;55787;52.678;13.314;2023-07-28T12:14:57;22.67;86.09
68804;SHT31;55787;52.678;13.314;2023-07-28T12:17:33;23.12;85.96
68804;SHT31;55787;52.678;13.314;2023-07-28T12:20:08;23.25;84.59
68804;SHT31;55787;52.678;13.314;2023-07-28T12:22:42;23.63;84.02
68804;SHT31;55787;52.678;13.314;2023-07-28T12:25:10;22.26;84.37
68804;SHT31;55787;52.678;13.314;2023-07-28T12:27:38;22.77;85.68
68804;SHT31;55787;52.678;13.314;2023-07-28T12:30:05;23.02;83.46
68804;SHT31;55787;52.678;13.314;2023-07-28T12:32:42;23.66;84.55
68804;SHT31;55787;52.678;13.314;2023-07-28T12:35:29;24.55;81.14
68804;SHT31;55787;52.678;13.314;2023-07-28T12:38:04;25.78;79.25
68804;SHT31;55787;52.678;13.314;2023-07-28T12:40:34;26.12;75.18
68804;SHT31;55787;52.678;13.314;2023-07-28T12:43:04;25.47;75.13
68804;SHT31;55787;52.678;13.314;2023-07-28T12:45:32;24.95;75.58
68804;SHT31;55787;52.678;13.314;2023-07-28T12:48:02;24.35;76.04
68804;SHT31;55787;52.678;13.314;2023-07-28T12:50:30;23.22;78.81
68804;SHT31;55787;52.678;13.314;2023-07-28T12:53:07;23.25;79.79
68804;SHT31;55787;52.678;13.314;2023-07-28T12:55:43;23.79;76.08
68804;SHT31;55787;52.678;13.314;2023-07-28T12:58:13;23.09;79.37
68804;SHT31;55787;52.678;13.314;2023-07-28T13:00:43;23.41;79.56
68804;SHT31;55787;52.678;13.314;2023-07-28T13:03:13;23.08;80.17
68804;SHT31;55787;52.678;13.314;2023-07-28T13:05:40;22.98;80.77
68804;SHT31;55787;52.678;13.314;2023-07-28T13:08:10;23.32;82.34
68804;SHT31;55787;52.678;13.314;2023-07-28T13:10:37;23.11;81.96
68804;SHT31;55787;52.678;13.314;2023-07-28T13:13:08;22.99;79.80
68804;SHT31;55787;52.678;13.314;2023-07-28T13:15:38;22.67;83.45
68804;SHT31;55787;52.678;13.314;2023-07-28T13:18:04;23.08;83.88
68804;SHT31;55787;52.678;13.314;2023-07-28T13:20:31;23.01;82.42
68804;SHT31;55787;52.678;13.314;2023-07-28T13:22:58;23.12;82.82
68804;SHT31;55787;52.678;13.314;2023-07-28T13:25:25;22.78;81.24
68804;SHT31;55787;52.678;13.314;2023-07-28T13:27:51;22.94;81.54
68804;SHT31;55787;52.678;13.314;2023-07-28T13:30:20;22.43;80.72
68804;SHT31;55787;52.678;13.314;2023-07-28T13:32:46;23.18;82.68
68804;SHT31;55787;52.678;13.314;2023-07-28T13:35:13;23.33;82.40
68804;SHT31;55787;52.678;13.314;2023-07-28T13:37:41;23.43;81.19
68804;SHT31;55787;52.678;13.314;2023-07-28T13:40:08;23.30;80.43
68804;SHT31;55787;52.678;13.314;2023-07-28T13:42:38;23.07;81.52
68804;SHT31;55787;52.678;13.314;2023-07-28T13:45:05;23.28;81.46
68804;SHT31;55787;52.678;13.314;2023-07-28T13:47:32;23.29;80.26
68804;SHT31;55787;52.678;13.314;2023-07-28T13:49:59;23.22;80.88
68804;SHT31;55787;52.678;13.314;2023-07-28T13:52:25;22.92;80.00
68804;SHT31;55787;52.678;13.314;2023-07-28T13:54:53;22.46;80.66
68804;SHT31;55787;52.678;13.314;2023-07-28T13:57:23;22.65;81.49
68804;SHT31;55787;52.678;13.314;2023-07-28T13:59:50;22.57;82.13
68804;SHT31;55787;52.678;13.314;2023-07-28T14:02:17;22.77;83.81
68804;SHT31;55787;52.678;13.314;2023-07-28T14:04:44;22.75;83.41
68804;SHT31;55787;52.678;13.314;2023-07-28T14:07:11;22.46;80.78
68804;SHT31;55787;52.678;13.314;2023-07-28T14:09:38;22.54;81.50
68804;SHT31;55787;52.678;13.314;2023-07-28T14:12:05;22.65;79.05
68804;SHT31;55787;52.678;13.314;2023-07-28T14:14:32;22.47;78.98
68804;SHT31;55787;52.678;13.314;2023-07-28T14:16:59;22.58;80.75
68804;SHT31;55787;52.678;13.314;2023-07-28T14:19:26;22.44;79.88
68804;SHT31;55787;52.678;13.314;2023-07-28T14:21:52;22.53;81.64
68804;SHT31;55787;52.678;13.314;2023-07-28T14:24:19;22.32;80.44
68804;SHT31;55787;52.678;13.314;2023-07-28T14:26:46;22.41;81.41
68804;SHT31;55787;52.678;13.314;2023-07-28T14:29:13;22.74;79.65
68804;SHT31;55787;52.678;13.314;2023-07-28T14:31:40;22.72;78.64
68804;SHT31;55787;52.678;13.314;2023-07-28T14:34:07;22.78;78.84
68804;SHT31;55787;52.678;13.314;2023-07-28T14:36:34;23.25;80.35
68804;SHT31;55787;52.678;13.314;2023-07-28T14:39:02;23.87;80.77
68804;SHT31;55787;52.678;13.314;2023-07-28T14:41:29;24.18;78.76
68804;SHT31;55787;52.678;13.314;2023-07-28T14:43:56;23.66;77.28
68804;SHT31;55787;52.678;13.314;2023-07-28T14:46:23;23.48;77.46
68804;SHT31;55787;52.678;13.314;2023-07-28T14:48:52;23.39;78.59
68804;SHT31;55787;52.678;13.314;2023-07-28T14:51:20;23.20;80.24
68804;SHT31;55787;52.678;13.314;2023-07-28T14:53:47;23.18;80.21
68804;SHT31;55787;52.678;13.314;2023-07-28T14:56:15;23.25;81.95
68804;SHT31;55787;52.678;13.314;2023-07-28T14:58:42;23.07;78.92
68804;SHT31;55787;52.678;13.314;2023-07-28T15:01:10;23.19;79.99
68804;SHT31;55787;52.678;13.314;2023-07-28T15:03:38;23.25;76.78
68804;SHT31;55787;52.678;13.314;2023-07-28T15:06:05;23.43;79.05
68804;SHT31;55787;52.678;13.314;2023-07-28T15:08:32;23.42;79.42
68804;SHT31;55787;52.678;13.314;2023-07-28T15:10:59;23.46;77.91
68804;SHT31;55787;52.678;13.314;2023-07-28T15:13:26;23.36;76.54
68804;SHT31;55787;52.678;13.314;2023-07-28T15:15:54;23.41;81.14
68804;SHT31;55787;52.678;13.314;2023-07-28T15:18:21;23.52;80.74
68804;SHT31;55787;52.678;13.314;2023-07-28T15:20:48;23.43;77.59
68804;SHT31;55787;52.678;13.314;2023-07-28T15:23:14;23.48;78.91
68804;SHT31;55787;52.678;13.314;2023-07-28T15:25:41;22.99;77.05
68804;SHT31;55787;52.678;13.314;2023-07-28T15:28:13;22.92;78.85
68804;SHT31;55787;52.678;13.314;2023-07-28T15:30:40;23.04;76.75
68804;SHT31;55787;52.678;13.314;2023-07-28T15:33:12;23.05;80.42
68804;SHT31;55787;52.678;13.314;2023-07-28T15:35:39;23.12;79.85